sensor_id;sensor_type;location;lat;lon;timestamp;pressure;altitude;pressure_sealevel;temperature
12753;BMP180;6440;44.616;2.032;2022-08-01T00:02:11;99161;;;22.70
12753;BMP180;6440;44.616;2.032;2022-08-01T00:04:40;99166;;;22.70
12753;BMP180;6440;44.616;2.032;2022-08-01T00:07:09;99164;;;22.60
12753;BMP180;6440;44.616;2.032;2022-08-01T00:09:37;99166;;;22.50
12753;BMP180;6440;44.616;2.032;2022-08-01T00:12:07;99154;;;22.40
12753;BMP180;6440;44.616;2.032;2022-08-01T00:14:36;99157;;;22.40
12753;BMP180;6440;44.616;2.032;2022-08-01T00:17:04;99148;;;22.30
12753;BMP180;6440;44.616;2.032;2022-08-01T00:19:33;99148;;;22.30
12753;BMP180;6440;44.616;2.032;2022-08-01T00:22:02;99145;;;22.20
12753;BMP180;6440;44.616;2.032;2022-08-01T00:24:31;99149;;;22.20
12753;BMP180;6440;44.616;2.032;2022-08-01T00:27:00;99152;;;22.00
12753;BMP180;6440;44.616;2.032;2022-08-01T00:29:29;99152;;;22.00
12753;BMP180;6440;44.616;2.032;2022-08-01T00:31:58;99146;;;21.90
12753;BMP180;6440;44.616;2.032;2022-08-01T00:34:27;99148;;;21.90
12753;BMP180;6440;44.616;2.032;2022-08-01T00:36:56;99145;;;21.90
12753;BMP180;6440;44.616;2.032;2022-08-01T00:39:25;99134;;;21.80
12753;BMP180;6440;44.616;2.032;2022-08-01T00:41:54;99134;;;21.70
12753;BMP180;6440;44.616;2.032;2022-08-01T00:44:23;99133;;;21.70
12753;BMP180;6440;44.616;2.032;2022-08-01T00:46:52;99129;;;21.70
12753;BMP180;6440;44.616;2.032;2022-08-01T00:49:21;99140;;;21.70
12753;BMP180;6440;44.616;2.032;2022-08-01T00:51:50;99136;;;21.70
12753;BMP180;6440;44.616;2.032;2022-08-01T00:54:18;99129;;;21.60
12753;BMP180;6440;44.616;2.032;2022-08-01T00:56:46;99136;;;21.60
12753;BMP180;6440;44.616;2.032;2022-08-01T00:59:15;99131;;;21.60
12753;BMP180;6440;44.616;2.032;2022-08-01T01:01:43;99136;;;21.60
12753;BMP180;6440;44.616;2.032;2022-08-01T01:04:12;99147;;;21.50
12753;BMP180;6440;44.616;2.032;2022-08-01T01:09:42;99140;;;21.40
12753;BMP180;6440;44.616;2.032;2022-08-01T01:12:16;99140;;;21.30
12753;BMP180;6440;44.616;2.032;2022-08-01T01:14:55;99134;;;21.30
12753;BMP180;6440;44.616;2.032;2022-08-01T01:17:27;99141;;;21.20
12753;BMP180;6440;44.616;2.032;2022-08-01T01:19:53;99135;;;21.20
12753;BMP180;6440;44.616;2.032;2022-08-01T01:23:05;99131;;;21.20
12753;BMP180;6440;44.616;2.032;2022-08-01T01:25:39;99133;;;21.10
12753;BMP180;6440;44.616;2.032;2022-08-01T01:28:10;99133;;;21.00
12753;BMP180;6440;44.616;2.032;2022-08-01T01:30:36;99138;;;21.00
12753;BMP180;6440;44.616;2.032;2022-08-01T01:33:06;99141;;;21.00
12753;BMP180;6440;44.616;2.032;2022-08-01T01:35:34;99141;;;21.00
12753;BMP180;6440;44.616;2.032;2022-08-01T01:38:04;99135;;;20.90
12753;BMP180;6440;44.616;2.032;2022-08-01T01:40:30;99136;;;20.80
12753;BMP180;6440;44.616;2.032;2022-08-01T01:42:58;99133;;;20.70
12753;BMP180;6440;44.616;2.032;2022-08-01T01:45:26;99139;;;20.70
12753;BMP180;6440;44.616;2.032;2022-08-01T01:47:55;99142;;;20.70
12753;BMP180;6440;44.616;2.032;2022-08-01T01:50:23;99135;;;20.60
12753;BMP180;6440;44.616;2.032;2022-08-01T01:52:51;99141;;;20.50
12753;BMP180;6440;44.616;2.032;2022-08-01T01:55:19;99143;;;20.60
12753;BMP180;6440;44.616;2.032;2022-08-01T01:57:47;99140;;;20.50
12753;BMP180;6440;44.616;2.032;2022-08-01T02:00:15;99138;;;20.40
12753;BMP180;6440;44.616;2.032;2022-08-01T02:02:43;99141;;;20.30
12753;BMP180;6440;44.616;2.032;2022-08-01T02:05:11;99110;;;20.30
12753;BMP180;6440;44.616;2.032;2022-08-01T02:07:39;99134;;;20.20
12753;BMP180;6440;44.616;2.032;2022-08-01T02:10:08;99137;;;20.20
12753;BMP180;6440;44.616;2.032;2022-08-01T02:12:36;99141;;;20.30
12753;BMP180;6440;44.616;2.032;2022-08-01T02:15:06;99147;;;20.20
12753;BMP180;6440;44.616;2.032;2022-08-01T02:17:36;99135;;;20.20
12753;BMP180;6440;44.616;2.032;2022-08-01T02:20:03;99127;;;20.20
12753;BMP180;6440;44.616;2.032;2022-08-01T02:22:36;99130;;;20.20
12753;BMP180;6440;44.616;2.032;2022-08-01T02:25:07;99136;;;20.00
12753;BMP180;6440;44.616;2.032;2022-08-01T02:27:37;99134;;;20.10
12753;BMP180;6440;44.616;2.032;2022-08-01T02:30:03;99138;;;20.00
12753;BMP180;6440;44.616;2.032;2022-08-01T02:32:36;99136;;;19.90
12753;BMP180;6440;44.616;2.032;2022-08-01T02:35:02;99141;;;19.90
12753;BMP180;6440;44.616;2.032;2022-08-01T02:37:31;99141;;;19.90
12753;BMP180;6440;44.616;2.032;2022-08-01T02:39:58;99138;;;19.90
12753;BMP180;6440;44.616;2.032;2022-08-01T02:42:28;99146;;;19.90
12753;BMP180;6440;44.616;2.032;2022-08-01T02:44:55;99144;;;19.80
12753;BMP180;6440;44.616;2.032;2022-08-01T02:47:23;99135;;;19.80
12753;BMP180;6440;44.616;2.032;2022-08-01T02:49:51;99137;;;19.80
12753;BMP180;6440;44.616;2.032;2022-08-01T02:52:19;99143;;;19.70
12753;BMP180;6440;44.616;2.032;2022-08-01T02:54:47;99137;;;19.60
12753;BMP180;6440;44.616;2.032;2022-08-01T02:57:15;99135;;;19.60
12753;BMP180;6440;44.616;2.032;2022-08-01T02:59:43;99133;;;19.60
12753;BMP180;6440;44.616;2.032;2022-08-01T03:02:11;99136;;;19.60
12753;BMP180;6440;44.616;2.032;2022-08-01T03:04:39;99140;;;19.50
12753;BMP180;6440;44.616;2.032;2022-08-01T03:07:07;99138;;;19.40
12753;BMP180;6440;44.616;2.032;2022-08-01T03:09:37;99135;;;19.40
12753;BMP180;6440;44.616;2.032;2022-08-01T03:12:04;99138;;;19.40
12753;BMP180;6440;44.616;2.032;2022-08-01T03:14:33;99140;;;19.30
12753;BMP180;6440;44.616;2.032;2022-08-01T03:17:00;99140;;;19.30
12753;BMP180;6440;44.616;2.032;2022-08-01T03:19:28;99135;;;19.20
12753;BMP180;6440;44.616;2.032;2022-08-01T03:21:56;99140;;;19.30
12753;BMP180;6440;44.616;2.032;2022-08-01T03:24:24;99143;;;19.30
12753;BMP180;6440;44.616;2.032;2022-08-01T03:26:52;99139;;;19.20
12753;BMP180;6440;44.616;2.032;2022-08-01T03:29:21;99137;;;19.20
12753;BMP180;6440;44.616;2.032;2022-08-01T03:31:48;99132;;;19.20
12753;BMP180;6440;44.616;2.032;2022-08-01T03:34:16;99133;;;19.10
12753;BMP180;6440;44.616;2.032;2022-08-01T03:36:48;99132;;;19.10
12753;BMP180;6440;44.616;2.032;2022-08-01T03:39:15;99129;;;19.10
12753;BMP180;6440;44.616;2.032;2022-08-01T03:41:43;99128;;;19.10
12753;BMP180;6440;44.616;2.032;2022-08-01T03:47:33;99129;;;19.00
12753;BMP180;6440;44.616;2.032;2022-08-01T03:50:01;99120;;;19.00
12753;BMP180;6440;44.616;2.032;2022-08-01T03:52:28;99124;;;18.90
12753;BMP180;6440;44.616;2.032;2022-08-01T03:54:58;99132;;;19.00
12753;BMP180;6440;44.616;2.032;2022-08-01T03:57:24;99130;;;19.00
12753;BMP180;6440;44.616;2.032;2022-08-01T03:59:52;99132;;;18.90
12753;BMP180;6440;44.616;2.032;2022-08-01T04:02:21;99139;;;18.90
12753;BMP180;6440;44.616;2.032;2022-08-01T04:04:49;99137;;;18.90
12753;BMP180;6440;44.616;2.032;2022-08-01T04:07:22;99142;;;18.80
12753;BMP180;6440;44.616;2.032;2022-08-01T04:09:50;99142;;;18.80
12753;BMP180;6440;44.616;2.032;2022-08-01T04:12:18;99143;;;18.80
12753;BMP180;6440;44.616;2.032;2022-08-01T04:14:46;99140;;;18.80
12753;BMP180;6440;44.616;2.032;2022-08-01T04:17:15;99142;;;18.70
12753;BMP180;6440;44.616;2.032;2022-08-01T04:19:43;99143;;;18.70
12753;BMP180;6440;44.616;2.032;2022-08-01T04:22:13;99143;;;18.70
12753;BMP180;6440;44.616;2.032;2022-08-01T04:24:41;99139;;;18.70
12753;BMP180;6440;44.616;2.032;2022-08-01T04:27:09;99142;;;18.60
12753;BMP180;6440;44.616;2.032;2022-08-01T04:29:37;99136;;;18.70
12753;BMP180;6440;44.616;2.032;2022-08-01T04:32:06;99143;;;18.70
12753;BMP180;6440;44.616;2.032;2022-08-01T04:34:33;99137;;;18.50
12753;BMP180;6440;44.616;2.032;2022-08-01T04:37:01;99134;;;18.50
12753;BMP180;6440;44.616;2.032;2022-08-01T04:39:30;99143;;;18.50
12753;BMP180;6440;44.616;2.032;2022-08-01T04:41:58;99147;;;18.50
12753;BMP180;6440;44.616;2.032;2022-08-01T04:44:26;99139;;;18.50
12753;BMP180;6440;44.616;2.032;2022-08-01T04:46:55;99148;;;18.50
12753;BMP180;6440;44.616;2.032;2022-08-01T04:49:23;99147;;;18.50
12753;BMP180;6440;44.616;2.032;2022-08-01T04:51:52;99156;;;18.40
12753;BMP180;6440;44.616;2.032;2022-08-01T04:54:20;99151;;;18.40
12753;BMP180;6440;44.616;2.032;2022-08-01T04:56:50;99158;;;18.40
12753;BMP180;6440;44.616;2.032;2022-08-01T04:59:19;99155;;;18.40
12753;BMP180;6440;44.616;2.032;2022-08-01T05:02:05;99159;;;18.40
12753;BMP180;6440;44.616;2.032;2022-08-01T05:04:33;99160;;;18.40
12753;BMP180;6440;44.616;2.032;2022-08-01T05:07:01;99162;;;18.30
12753;BMP180;6440;44.616;2.032;2022-08-01T05:09:29;99169;;;18.30
12753;BMP180;6440;44.616;2.032;2022-08-01T05:11:59;99173;;;18.50
12753;BMP180;6440;44.616;2.032;2022-08-01T05:14:27;99172;;;18.40
12753;BMP180;6440;44.616;2.032;2022-08-01T05:16:55;99171;;;18.40
12753;BMP180;6440;44.616;2.032;2022-08-01T05:19:24;99170;;;18.50
12753;BMP180;6440;44.616;2.032;2022-08-01T05:21:52;99173;;;18.50
12753;BMP180;6440;44.616;2.032;2022-08-01T05:24:20;99173;;;18.50
12753;BMP180;6440;44.616;2.032;2022-08-01T05:26:49;99174;;;18.60
12753;BMP180;6440;44.616;2.032;2022-08-01T05:29:18;99169;;;18.70
12753;BMP180;6440;44.616;2.032;2022-08-01T05:31:48;99173;;;18.80
12753;BMP180;6440;44.616;2.032;2022-08-01T05:34:17;99179;;;18.80
12753;BMP180;6440;44.616;2.032;2022-08-01T05:36:45;99178;;;18.80
12753;BMP180;6440;44.616;2.032;2022-08-01T05:39:14;99174;;;18.80
12753;BMP180;6440;44.616;2.032;2022-08-01T05:41:41;99182;;;18.80
12753;BMP180;6440;44.616;2.032;2022-08-01T05:44:09;99177;;;18.90
12753;BMP180;6440;44.616;2.032;2022-08-01T05:46:38;99180;;;18.90
12753;BMP180;6440;44.616;2.032;2022-08-01T05:49:07;99176;;;19.00
12753;BMP180;6440;44.616;2.032;2022-08-01T05:51:36;99175;;;19.00
12753;BMP180;6440;44.616;2.032;2022-08-01T05:54:05;99169;;;19.00
12753;BMP180;6440;44.616;2.032;2022-08-01T05:56:34;99173;;;19.10
12753;BMP180;6440;44.616;2.032;2022-08-01T05:59:02;99166;;;19.10
12753;BMP180;6440;44.616;2.032;2022-08-01T06:01:31;99168;;;19.20
12753;BMP180;6440;44.616;2.032;2022-08-01T06:04:01;99175;;;19.20
12753;BMP180;6440;44.616;2.032;2022-08-01T06:06:33;99183;;;19.30
12753;BMP180;6440;44.616;2.032;2022-08-01T06:09:04;99195;;;19.30
12753;BMP180;6440;44.616;2.032;2022-08-01T06:11:33;99191;;;19.40
12753;BMP180;6440;44.616;2.032;2022-08-01T06:14:03;99188;;;19.50
12753;BMP180;6440;44.616;2.032;2022-08-01T06:16:31;99191;;;19.60
12753;BMP180;6440;44.616;2.032;2022-08-01T06:18:59;99192;;;19.70
12753;BMP180;6440;44.616;2.032;2022-08-01T06:21:28;99189;;;19.90
12753;BMP180;6440;44.616;2.032;2022-08-01T06:23:57;99194;;;20.00
12753;BMP180;6440;44.616;2.032;2022-08-01T06:26:26;99193;;;20.10
12753;BMP180;6440;44.616;2.032;2022-08-01T06:28:55;99189;;;20.20
12753;BMP180;6440;44.616;2.032;2022-08-01T06:31:24;99189;;;20.40
12753;BMP180;6440;44.616;2.032;2022-08-01T06:33:53;99187;;;20.50
12753;BMP180;6440;44.616;2.032;2022-08-01T06:36:21;99189;;;20.60
12753;BMP180;6440;44.616;2.032;2022-08-01T06:38:50;99198;;;20.70
12753;BMP180;6440;44.616;2.032;2022-08-01T06:41:19;99204;;;20.90
12753;BMP180;6440;44.616;2.032;2022-08-01T06:43:48;99200;;;21.00
12753;BMP180;6440;44.616;2.032;2022-08-01T06:46:17;99197;;;21.20
12753;BMP180;6440;44.616;2.032;2022-08-01T06:48:46;99198;;;21.40
12753;BMP180;6440;44.616;2.032;2022-08-01T06:51:15;99195;;;21.60
12753;BMP180;6440;44.616;2.032;2022-08-01T06:53:45;99193;;;21.80
12753;BMP180;6440;44.616;2.032;2022-08-01T06:56:14;99196;;;21.90
12753;BMP180;6440;44.616;2.032;2022-08-01T06:58:43;99207;;;22.20
12753;BMP180;6440;44.616;2.032;2022-08-01T07:01:12;99197;;;22.30
12753;BMP180;6440;44.616;2.032;2022-08-01T07:03:40;99206;;;22.50
12753;BMP180;6440;44.616;2.032;2022-08-01T07:06:09;99194;;;22.70
12753;BMP180;6440;44.616;2.032;2022-08-01T07:08:38;99204;;;23.40
12753;BMP180;6440;44.616;2.032;2022-08-01T07:11:07;99199;;;23.90
12753;BMP180;6440;44.616;2.032;2022-08-01T07:13:35;99211;;;24.00
12753;BMP180;6440;44.616;2.032;2022-08-01T07:16:04;99203;;;24.10
12753;BMP180;6440;44.616;2.032;2022-08-01T07:18:33;99208;;;24.30
12753;BMP180;6440;44.616;2.032;2022-08-01T07:21:02;99203;;;24.40
12753;BMP180;6440;44.616;2.032;2022-08-01T07:23:31;99208;;;24.50
12753;BMP180;6440;44.616;2.032;2022-08-01T07:25:59;99214;;;24.50
12753;BMP180;6440;44.616;2.032;2022-08-01T07:28:28;99212;;;24.80
12753;BMP180;6440;44.616;2.032;2022-08-01T07:30:57;99214;;;25.10
12753;BMP180;6440;44.616;2.032;2022-08-01T07:33:25;99212;;;25.70
12753;BMP180;6440;44.616;2.032;2022-08-01T07:35:54;99210;;;27.50
12753;BMP180;6440;44.616;2.032;2022-08-01T07:38:23;99208;;;30.00
12753;BMP180;6440;44.616;2.032;2022-08-01T07:40:51;99203;;;31.90
12753;BMP180;6440;44.616;2.032;2022-08-01T07:43:20;99216;;;34.10
12753;BMP180;6440;44.616;2.032;2022-08-01T07:45:48;99205;;;35.90
12753;BMP180;6440;44.616;2.032;2022-08-01T07:48:17;99209;;;37.10
12753;BMP180;6440;44.616;2.032;2022-08-01T07:50:45;99208;;;38.30
12753;BMP180;6440;44.616;2.032;2022-08-01T07:53:14;99210;;;38.90
12753;BMP180;6440;44.616;2.032;2022-08-01T07:55:43;99206;;;40.00
12753;BMP180;6440;44.616;2.032;2022-08-01T07:58:12;99205;;;40.80
12753;BMP180;6440;44.616;2.032;2022-08-01T08:00:41;99210;;;41.30
12753;BMP180;6440;44.616;2.032;2022-08-01T08:03:10;99208;;;42.20
12753;BMP180;6440;44.616;2.032;2022-08-01T08:05:39;99206;;;42.50
12753;BMP180;6440;44.616;2.032;2022-08-01T08:08:07;99217;;;42.60
12753;BMP180;6440;44.616;2.032;2022-08-01T08:10:36;99217;;;42.60
12753;BMP180;6440;44.616;2.032;2022-08-01T08:13:05;99214;;;42.30
12753;BMP180;6440;44.616;2.032;2022-08-01T08:15:34;99212;;;42.00
12753;BMP180;6440;44.616;2.032;2022-08-01T08:18:04;99215;;;42.60
12753;BMP180;6440;44.616;2.032;2022-08-01T08:20:33;99216;;;42.40
12753;BMP180;6440;44.616;2.032;2022-08-01T08:23:02;99207;;;42.00
12753;BMP180;6440;44.616;2.032;2022-08-01T08:25:30;99208;;;43.10
12753;BMP180;6440;44.616;2.032;2022-08-01T08:27:59;99216;;;43.40
12753;BMP180;6440;44.616;2.032;2022-08-01T08:30:28;99211;;;44.30
12753;BMP180;6440;44.616;2.032;2022-08-01T08:32:57;99218;;;44.50
12753;BMP180;6440;44.616;2.032;2022-08-01T08:35:26;99219;;;44.00
12753;BMP180;6440;44.616;2.032;2022-08-01T08:37:56;99217;;;44.10
12753;BMP180;6440;44.616;2.032;2022-08-01T08:40:24;99226;;;45.20
12753;BMP180;6440;44.616;2.032;2022-08-01T08:42:52;99230;;;44.60
12753;BMP180;6440;44.616;2.032;2022-08-01T08:45:20;99224;;;44.70
12753;BMP180;6440;44.616;2.032;2022-08-01T08:47:48;99231;;;45.60
12753;BMP180;6440;44.616;2.032;2022-08-01T08:50:16;99224;;;45.60
12753;BMP180;6440;44.616;2.032;2022-08-01T08:52:44;99232;;;45.50
12753;BMP180;6440;44.616;2.032;2022-08-01T08:55:12;99227;;;45.80
12753;BMP180;6440;44.616;2.032;2022-08-01T08:57:39;99225;;;45.60
12753;BMP180;6440;44.616;2.032;2022-08-01T09:00:10;99216;;;45.50
12753;BMP180;6440;44.616;2.032;2022-08-01T09:02:42;99216;;;46.70
12753;BMP180;6440;44.616;2.032;2022-08-01T09:05:09;99218;;;46.00
12753;BMP180;6440;44.616;2.032;2022-08-01T09:07:37;99215;;;45.90
12753;BMP180;6440;44.616;2.032;2022-08-01T09:10:07;99217;;;45.20
12753;BMP180;6440;44.616;2.032;2022-08-01T09:12:36;99214;;;45.90
12753;BMP180;6440;44.616;2.032;2022-08-01T09:15:03;99209;;;46.40
12753;BMP180;6440;44.616;2.032;2022-08-01T09:17:39;99212;;;46.40
12753;BMP180;6440;44.616;2.032;2022-08-01T09:20:00;99214;;;46.40
12753;BMP180;6440;44.616;2.032;2022-08-01T09:22:28;99209;;;46.70
12753;BMP180;6440;44.616;2.032;2022-08-01T09:25:03;99211;;;46.30
12753;BMP180;6440;44.616;2.032;2022-08-01T09:27:29;99219;;;46.50
12753;BMP180;6440;44.616;2.032;2022-08-01T09:30:06;99213;;;47.00
12753;BMP180;6440;44.616;2.032;2022-08-01T09:32:25;99208;;;47.20
12753;BMP180;6440;44.616;2.032;2022-08-01T09:34:54;99206;;;46.90
12753;BMP180;6440;44.616;2.032;2022-08-01T09:37:29;99213;;;46.30
12753;BMP180;6440;44.616;2.032;2022-08-01T09:39:54;99202;;;46.10
12753;BMP180;6440;44.616;2.032;2022-08-01T09:42:22;99197;;;46.10
12753;BMP180;6440;44.616;2.032;2022-08-01T09:44:49;99204;;;46.00
12753;BMP180;6440;44.616;2.032;2022-08-01T09:47:17;99207;;;46.10
12753;BMP180;6440;44.616;2.032;2022-08-01T09:49:45;99201;;;46.10
12753;BMP180;6440;44.616;2.032;2022-08-01T09:52:15;99207;;;45.70
12753;BMP180;6440;44.616;2.032;2022-08-01T09:54:52;99196;;;45.60
12753;BMP180;6440;44.616;2.032;2022-08-01T09:57:14;99194;;;45.60
12753;BMP180;6440;44.616;2.032;2022-08-01T09:59:43;99191;;;45.60
12753;BMP180;6440;44.616;2.032;2022-08-01T10:02:10;99184;;;45.80
12753;BMP180;6440;44.616;2.032;2022-08-01T10:04:45;99186;;;45.90
12753;BMP180;6440;44.616;2.032;2022-08-01T10:07:06;99182;;;45.70
12753;BMP180;6440;44.616;2.032;2022-08-01T10:09:35;99166;;;46.20
12753;BMP180;6440;44.616;2.032;2022-08-01T10:12:05;99174;;;45.60
12753;BMP180;6440;44.616;2.032;2022-08-01T10:14:33;99175;;;45.10
12753;BMP180;6440;44.616;2.032;2022-08-01T10:17:02;99177;;;45.60
12753;BMP180;6440;44.616;2.032;2022-08-01T10:19:30;99186;;;46.20
12753;BMP180;6440;44.616;2.032;2022-08-01T10:21:59;99175;;;45.70
12753;BMP180;6440;44.616;2.032;2022-08-01T10:24:28;99160;;;45.30
12753;BMP180;6440;44.616;2.032;2022-08-01T10:26:58;99168;;;45.10
12753;BMP180;6440;44.616;2.032;2022-08-01T10:29:25;99169;;;45.50
12753;BMP180;6440;44.616;2.032;2022-08-01T10:31:54;99173;;;45.20
12753;BMP180;6440;44.616;2.032;2022-08-01T10:34:22;99167;;;44.00
12753;BMP180;6440;44.616;2.032;2022-08-01T10:36:50;99163;;;44.50
12753;BMP180;6440;44.616;2.032;2022-08-01T10:39:18;99153;;;44.40
12753;BMP180;6440;44.616;2.032;2022-08-01T10:41:46;99161;;;44.00
12753;BMP180;6440;44.616;2.032;2022-08-01T10:44:15;99155;;;43.40
12753;BMP180;6440;44.616;2.032;2022-08-01T10:46:45;99155;;;43.60
12753;BMP180;6440;44.616;2.032;2022-08-01T10:49:11;99145;;;43.40
12753;BMP180;6440;44.616;2.032;2022-08-01T10:51:39;99149;;;43.60
12753;BMP180;6440;44.616;2.032;2022-08-01T10:54:08;99154;;;43.60
12753;BMP180;6440;44.616;2.032;2022-08-01T10:56:46;99153;;;43.60
12753;BMP180;6440;44.616;2.032;2022-08-01T10:59:21;99144;;;43.60
12753;BMP180;6440;44.616;2.032;2022-08-01T11:02:02;99153;;;43.70
12753;BMP180;6440;44.616;2.032;2022-08-01T11:07:34;99151;;;43.30
12753;BMP180;6440;44.616;2.032;2022-08-01T11:10:08;99141;;;43.10
12753;BMP180;6440;44.616;2.032;2022-08-01T11:12:39;99148;;;42.80
12753;BMP180;6440;44.616;2.032;2022-08-01T11:15:22;99135;;;42.40
12753;BMP180;6440;44.616;2.032;2022-08-01T11:17:52;99138;;;42.60
12753;BMP180;6440;44.616;2.032;2022-08-01T11:20:23;99130;;;42.60
12753;BMP180;6440;44.616;2.032;2022-08-01T11:23:15;99141;;;42.30
12753;BMP180;6440;44.616;2.032;2022-08-01T11:26:07;99136;;;42.00
12753;BMP180;6440;44.616;2.032;2022-08-01T11:28:35;99129;;;42.20
12753;BMP180;6440;44.616;2.032;2022-08-01T11:31:27;99136;;;42.10
12753;BMP180;6440;44.616;2.032;2022-08-01T11:33:55;99122;;;41.60
12753;BMP180;6440;44.616;2.032;2022-08-01T11:36:24;99118;;;41.80
12753;BMP180;6440;44.616;2.032;2022-08-01T11:39:12;99120;;;41.50
12753;BMP180;6440;44.616;2.032;2022-08-01T11:41:40;99118;;;41.40
12753;BMP180;6440;44.616;2.032;2022-08-01T11:44:12;99119;;;41.40
12753;BMP180;6440;44.616;2.032;2022-08-01T11:47:04;99111;;;41.30
12753;BMP180;6440;44.616;2.032;2022-08-01T11:49:47;99114;;;40.70
12753;BMP180;6440;44.616;2.032;2022-08-01T11:52:18;99118;;;40.60
12753;BMP180;6440;44.616;2.032;2022-08-01T11:54:48;99102;;;40.40
12753;BMP180;6440;44.616;2.032;2022-08-01T11:57:19;99098;;;40.50
12753;BMP180;6440;44.616;2.032;2022-08-01T11:59:53;99099;;;39.90
12753;BMP180;6440;44.616;2.032;2022-08-01T12:02:31;99097;;;39.50
12753;BMP180;6440;44.616;2.032;2022-08-01T12:05:05;99097;;;39.10
12753;BMP180;6440;44.616;2.032;2022-08-01T12:07:32;99098;;;39.00
12753;BMP180;6440;44.616;2.032;2022-08-01T12:10:04;99106;;;38.90
12753;BMP180;6440;44.616;2.032;2022-08-01T12:12:33;99101;;;39.00
12753;BMP180;6440;44.616;2.032;2022-08-01T12:15:01;99105;;;38.70
12753;BMP180;6440;44.616;2.032;2022-08-01T12:17:30;99097;;;38.20
12753;BMP180;6440;44.616;2.032;2022-08-01T12:19:58;98979;;;38.00
12753;BMP180;6440;44.616;2.032;2022-08-01T12:22:26;99092;;;37.90
12753;BMP180;6440;44.616;2.032;2022-08-01T12:24:54;99097;;;38.20
12753;BMP180;6440;44.616;2.032;2022-08-01T12:27:28;99090;;;38.50
12753;BMP180;6440;44.616;2.032;2022-08-01T12:29:56;99098;;;38.50
12753;BMP180;6440;44.616;2.032;2022-08-01T12:32:35;99106;;;38.60
12753;BMP180;6440;44.616;2.032;2022-08-01T12:35:07;99100;;;38.50
12753;BMP180;6440;44.616;2.032;2022-08-01T12:37:36;99099;;;38.40
12753;BMP180;6440;44.616;2.032;2022-08-01T12:40:16;99090;;;38.40
12753;BMP180;6440;44.616;2.032;2022-08-01T12:42:44;99086;;;37.80
12753;BMP180;6440;44.616;2.032;2022-08-01T12:45:14;99078;;;37.40
12753;BMP180;6440;44.616;2.032;2022-08-01T12:47:40;99071;;;37.50
12753;BMP180;6440;44.616;2.032;2022-08-01T12:50:13;99076;;;37.60
12753;BMP180;6440;44.616;2.032;2022-08-01T12:52:39;99067;;;37.90
12753;BMP180;6440;44.616;2.032;2022-08-01T12:55:10;99066;;;38.10
12753;BMP180;6440;44.616;2.032;2022-08-01T12:57:38;99075;;;38.30
12753;BMP180;6440;44.616;2.032;2022-08-01T13:00:06;99070;;;38.40
12753;BMP180;6440;44.616;2.032;2022-08-01T13:02:34;99070;;;38.30
12753;BMP180;6440;44.616;2.032;2022-08-01T13:05:03;99071;;;38.50
12753;BMP180;6440;44.616;2.032;2022-08-01T13:07:38;99068;;;38.20
12753;BMP180;6440;44.616;2.032;2022-08-01T13:10:06;99069;;;38.10
12753;BMP180;6440;44.616;2.032;2022-08-01T13:12:34;99070;;;38.10
12753;BMP180;6440;44.616;2.032;2022-08-01T13:15:19;99062;;;38.10
12753;BMP180;6440;44.616;2.032;2022-08-01T13:17:47;99056;;;38.00
12753;BMP180;6440;44.616;2.032;2022-08-01T13:20:24;99056;;;38.10
12753;BMP180;6440;44.616;2.032;2022-08-01T13:22:51;99059;;;38.10
12753;BMP180;6440;44.616;2.032;2022-08-01T13:25:19;99053;;;38.10
12753;BMP180;6440;44.616;2.032;2022-08-01T13:27:47;99061;;;37.80
12753;BMP180;6440;44.616;2.032;2022-08-01T13:30:18;99042;;;37.80
12753;BMP180;6440;44.616;2.032;2022-08-01T13:32:58;99032;;;37.90
12753;BMP180;6440;44.616;2.032;2022-08-01T13:35:26;99036;;;37.90
12753;BMP180;6440;44.616;2.032;2022-08-01T13:37:54;99040;;;38.00
12753;BMP180;6440;44.616;2.032;2022-08-01T13:40:25;99030;;;37.80
12753;BMP180;6440;44.616;2.032;2022-08-01T13:42:53;99026;;;37.70
12753;BMP180;6440;44.616;2.032;2022-08-01T13:45:21;99022;;;37.80
12753;BMP180;6440;44.616;2.032;2022-08-01T13:47:49;99036;;;37.80
12753;BMP180;6440;44.616;2.032;2022-08-01T13:50:18;99026;;;37.60
12753;BMP180;6440;44.616;2.032;2022-08-01T13:52:47;99038;;;37.60
12753;BMP180;6440;44.616;2.032;2022-08-01T13:55:15;99025;;;37.70
12753;BMP180;6440;44.616;2.032;2022-08-01T13:57:44;99016;;;37.60
12753;BMP180;6440;44.616;2.032;2022-08-01T14:00:14;99027;;;37.70
12753;BMP180;6440;44.616;2.032;2022-08-01T14:02:43;99021;;;37.80
12753;BMP180;6440;44.616;2.032;2022-08-01T14:05:11;99020;;;37.70
12753;BMP180;6440;44.616;2.032;2022-08-01T14:07:40;99021;;;37.40
12753;BMP180;6440;44.616;2.032;2022-08-01T14:10:09;99009;;;37.60
12753;BMP180;6440;44.616;2.032;2022-08-01T14:12:38;99016;;;37.60
12753;BMP180;6440;44.616;2.032;2022-08-01T14:15:09;99022;;;37.50
12753;BMP180;6440;44.616;2.032;2022-08-01T14:17:37;99028;;;37.60
12753;BMP180;6440;44.616;2.032;2022-08-01T14:20:07;99019;;;37.50
12753;BMP180;6440;44.616;2.032;2022-08-01T14:22:36;99020;;;37.60
12753;BMP180;6440;44.616;2.032;2022-08-01T14:25:06;99009;;;37.50
12753;BMP180;6440;44.616;2.032;2022-08-01T14:27:35;99002;;;37.50
12753;BMP180;6440;44.616;2.032;2022-08-01T14:30:05;99000;;;37.40
12753;BMP180;6440;44.616;2.032;2022-08-01T14:32:34;98899;;;37.40
12753;BMP180;6440;44.616;2.032;2022-08-01T14:35:02;98997;;;37.40
12753;BMP180;6440;44.616;2.032;2022-08-01T14:37:30;99005;;;37.30
12753;BMP180;6440;44.616;2.032;2022-08-01T14:39:58;99006;;;37.10
12753;BMP180;6440;44.616;2.032;2022-08-01T14:42:26;99010;;;37.20
12753;BMP180;6440;44.616;2.032;2022-08-01T14:44:55;99007;;;37.10
12753;BMP180;6440;44.616;2.032;2022-08-01T14:47:23;99009;;;37.10
12753;BMP180;6440;44.616;2.032;2022-08-01T14:49:52;98998;;;37.10
12753;BMP180;6440;44.616;2.032;2022-08-01T14:52:21;98995;;;37.20
12753;BMP180;6440;44.616;2.032;2022-08-01T14:54:49;98981;;;37.20
12753;BMP180;6440;44.616;2.032;2022-08-01T14:57:18;98991;;;37.20
12753;BMP180;6440;44.616;2.032;2022-08-01T14:59:47;98988;;;37.30
12753;BMP180;6440;44.616;2.032;2022-08-01T15:02:16;98993;;;37.20
12753;BMP180;6440;44.616;2.032;2022-08-01T15:04:45;98993;;;37.10
12753;BMP180;6440;44.616;2.032;2022-08-01T15:07:12;98995;;;37.00
12753;BMP180;6440;44.616;2.032;2022-08-01T15:09:40;99004;;;36.80
12753;BMP180;6440;44.616;2.032;2022-08-01T15:12:09;98998;;;36.80
12753;BMP180;6440;44.616;2.032;2022-08-01T15:14:37;98998;;;36.80
12753;BMP180;6440;44.616;2.032;2022-08-01T15:17:11;98992;;;36.80
12753;BMP180;6440;44.616;2.032;2022-08-01T15:19:39;98999;;;36.90
12753;BMP180;6440;44.616;2.032;2022-08-01T15:22:08;98989;;;36.90
12753;BMP180;6440;44.616;2.032;2022-08-01T15:24:36;98986;;;37.00